Wetterdaten: Woche 09.06.08 - 15.06.08 (KW24)
Datum Zeit Temperatur Luftfeuchte Luftdruck Niederschlag Wind Richtung Sonnenschein Solar Taupunkt Windchill Windben
09.06.2008 00:00 13.8 C 89 % 1018.0 hPa 0.0 l/m 3.1 km/h (1 Bft) N 0.00 h 0 W/m 12.0 C 13.8 C 6.0 km/h (2 Bft)
09.06.2008 01:00 13.2 C 90 % 1018.0 hPa 0.0 l/m 0.3 km/h (0 Bft) W 0.00 h 0 W/m 11.5 C 13.2 C 0.9 km/h (0 Bft)
09.06.2008 02:00 12.3 C 94 % 1017.9 hPa 0.0 l/m 0.4 km/h (0 Bft) W-NW 0.00 h 0 W/m 11.3 C 12.3 C 1.3 km/h (1 Bft)
09.06.2008 03:00 11.8 C 94 % 1017.9 hPa 0.0 l/m 0.6 km/h (0 Bft) NO 0.00 h 0 W/m 10.9 C 11.8 C 1.7 km/h (1 Bft)
09.06.2008 04:00 11.2 C 95 % 1017.7 hPa 0.0 l/m 1.1 km/h (1 Bft) O-NO 0.00 h 0 W/m 10.5 C 11.2 C 2.4 km/h (1 Bft)
09.06.2008 05:00 10.7 C 96 % 1018.1 hPa 0.0 l/m 0.2 km/h (0 Bft) O-NO 0.07 h 12 W/m 10.0 C 10.7 C 0.6 km/h (0 Bft)
09.06.2008 06:00 10.6 C 97 % 1018.6 hPa 0.0 l/m 0.0 km/h (0 Bft) O-NO 0.00 h 43 W/m 10.1 C 10.6 C 0.3 km/h (0 Bft)
09.06.2008 07:00 11.5 C 97 % 1019.0 hPa 0.0 l/m 1.4 km/h (1 Bft) O-NO 0.08 h 112 W/m 11.1 C 11.5 C 3.1 km/h (1 Bft)
09.06.2008 08:00 13.3 C 95 % 1019.0 hPa 0.0 l/m 0.6 km/h (0 Bft) N-NW 0.78 h 278 W/m 12.5 C 13.3 C 1.9 km/h (1 Bft)
09.06.2008 09:00 15.7 C 83 % 1018.9 hPa 0.0 l/m 0.8 km/h (0 Bft) N-NW 1.00 h 479 W/m 12.7 C 15.7 C 2.3 km/h (1 Bft)
09.06.2008 10:00 18.9 C 73 % 1018.8 hPa 0.0 l/m 2.5 km/h (1 Bft) W-NW 1.00 h 670 W/m 14.0 C 18.9 C 4.7 km/h (1 Bft)
09.06.2008 11:00 20.9 C 63 % 1018.7 hPa 0.0 l/m 5.7 km/h (1 Bft) O-SO 1.00 h 738 W/m 13.7 C 20.9 C 9.9 km/h (2 Bft)
09.06.2008 12:00 21.9 C 59 % 1018.5 hPa 0.0 l/m 6.6 km/h (2 Bft) O-SO 1.00 h 825 W/m 13.6 C 21.9 C 10.5 km/h (2 Bft)
09.06.2008 13:00 22.8 C 55 % 1018.4 hPa 0.0 l/m 8.7 km/h (2 Bft) O-SO 1.00 h 883 W/m 13.1 C 22.8 C 13.9 km/h (3 Bft)
09.06.2008 14:00 23.8 C 51 % 1018.0 hPa 0.0 l/m 4.8 km/h (1 Bft) O-SO 1.00 h 865 W/m 13.1 C 23.8 C 9.7 km/h (2 Bft)
09.06.2008 15:00 24.2 C 51 % 1017.6 hPa 0.0 l/m 5.9 km/h (2 Bft) O-SO 0.87 h 715 W/m 13.5 C 24.2 C 9.9 km/h (2 Bft)
09.06.2008 16:00 23.9 C 52 % 1017.4 hPa 0.0 l/m 6.5 km/h (2 Bft) O-SO 0.63 h 525 W/m 13.5 C 23.9 C 10.8 km/h (2 Bft)
09.06.2008 17:00 23.6 C 53 % 1017.4 hPa 0.0 l/m 6.0 km/h (2 Bft) O-SO 0.60 h 355 W/m 13.4 C 23.6 C 10.3 km/h (2 Bft)
09.06.2008 18:00 22.8 C 55 % 1017.7 hPa 0.0 l/m 6.2 km/h (2 Bft) O-SO 0.33 h 157 W/m 13.3 C 22.8 C 9.4 km/h (2 Bft)
09.06.2008 19:00 21.0 C 60 % 1018.0 hPa 0.0 l/m 0.8 km/h (0 Bft) O-SO 0.00 h 38 W/m 12.9 C 21.0 C 1.8 km/h (1 Bft)
09.06.2008 20:00 18.9 C 72 % 1018.3 hPa 0.0 l/m 1.6 km/h (1 Bft) SO 0.00 h 26 W/m 13.8 C 18.9 C 3.3 km/h (1 Bft)
09.06.2008 21:00 18.1 C 71 % 1019.0 hPa 0.0 l/m 0.9 km/h (0 Bft) SO 0.00 h 6 W/m 12.8 C 18.1 C 2.2 km/h (1 Bft)
09.06.2008 22:00 16.7 C 77 % 1019.3 hPa 0.0 l/m 2.5 km/h (1 Bft) O-SO 0.00 h 0 W/m 12.6 C 16.7 C 3.6 km/h (1 Bft)
09.06.2008 23:00 15.1 C 85 % 1019.4 hPa 0.0 l/m 2.2 km/h (1 Bft) O-SO 0.00 h 0 W/m 12.6 C 15.1 C 3.0 km/h (1 Bft)
10.06.2008 00:00 14.0 C 89 % 1019.5 hPa 0.0 l/m 2.1 km/h (1 Bft) O-SO 0.00 h 0 W/m 12.2 C 14.0 C 3.3 km/h (1 Bft)
10.06.2008 01:00 13.5 C 90 % 1019.9 hPa 0.0 l/m 3.0 km/h (1 Bft) O-SO 0.00 h 0 W/m 11.9 C 13.5 C 4.3 km/h (1 Bft)
10.06.2008 02:00 13.0 C 93 % 1019.8 hPa 0.0 l/m 1.0 km/h (0 Bft) O-SO 0.00 h 0 W/m 11.9 C 13.0 C 1.9 km/h (1 Bft)
10.06.2008 03:00 12.5 C 95 % 1019.5 hPa 0.0 l/m 2.1 km/h (1 Bft) O-SO 0.00 h 0 W/m 11.8 C 12.5 C 3.4 km/h (1 Bft)
10.06.2008 04:00 12.2 C 96 % 1019.5 hPa 0.0 l/m 1.4 km/h (1 Bft) O-SO 0.00 h 0 W/m 11.5 C 12.2 C 2.6 km/h (1 Bft)
10.06.2008 05:00 11.6 C 97 % 1019.5 hPa 0.0 l/m 0.4 km/h (0 Bft) O-SO 0.03 h 11 W/m 11.2 C 11.6 C 1.3 km/h (1 Bft)
10.06.2008 06:00 11.9 C 98 % 1020.0 hPa 0.0 l/m 0.9 km/h (0 Bft) O-SO 0.15 h 48 W/m 11.6 C 11.9 C 1.6 km/h (1 Bft)
10.06.2008 07:00 13.9 C 94 % 1020.2 hPa 0.0 l/m 0.0 km/h (0 Bft) O-SO 1.00 h 193 W/m 12.9 C 13.9 C 0.3 km/h (0 Bft)
10.06.2008 08:00 16.4 C 86 % 1020.0 hPa 0.0 l/m 0.8 km/h (0 Bft) S-SO 1.00 h 351 W/m 14.1 C 16.4 C 2.6 km/h (1 Bft)
10.06.2008 09:00 18.7 C 80 % 1019.7 hPa 0.0 l/m 0.7 km/h (0 Bft) S-SO 1.00 h 515 W/m 15.0 C 18.7 C 2.6 km/h (1 Bft)
10.06.2008 10:00 20.8 C 73 % 1019.6 hPa 0.0 l/m 1.4 km/h (1 Bft) S-SO 1.00 h 658 W/m 15.7 C 20.8 C 3.5 km/h (1 Bft)
10.06.2008 11:00 22.4 C 68 % 1019.3 hPa 0.0 l/m 2.5 km/h (1 Bft) W-NW 1.00 h 774 W/m 16.3 C 22.4 C 5.1 km/h (1 Bft)
10.06.2008 12:00 24.1 C 61 % 1018.9 hPa 0.0 l/m 3.7 km/h (1 Bft) SO 1.00 h 861 W/m 16.0 C 24.1 C 7.3 km/h (2 Bft)
10.06.2008 13:00 25.1 C 52 % 1018.4 hPa 0.0 l/m 3.6 km/h (1 Bft) O 0.97 h 887 W/m 14.6 C 25.1 C 7.0 km/h (2 Bft)
10.06.2008 14:00 25.6 C 51 % 1017.5 hPa 0.0 l/m 2.4 km/h (1 Bft) O-SO 0.92 h 852 W/m 14.5 C 25.6 C 4.7 km/h (1 Bft)
10.06.2008 15:00 25.9 C 51 % 1017.0 hPa 0.0 l/m 8.8 km/h (2 Bft) N-NW 0.77 h 625 W/m 14.8 C 25.9 C 14.5 km/h (3 Bft)
10.06.2008 16:00 25.3 C 51 % 1016.6 hPa 0.0 l/m 8.4 km/h (2 Bft) N-NW 1.00 h 507 W/m 14.4 C 25.3 C 14.0 km/h (3 Bft)
10.06.2008 17:00 25.4 C 53 % 1016.2 hPa 0.0 l/m 4.1 km/h (1 Bft) N-NW 1.00 h 428 W/m 15.1 C 25.4 C 7.6 km/h (2 Bft)
10.06.2008 18:00 25.0 C 51 % 1016.0 hPa 0.0 l/m 7.0 km/h (2 Bft) N-NW 0.78 h 303 W/m 14.0 C 25.0 C 11.4 km/h (2 Bft)
10.06.2008 19:00 24.3 C 50 % 1015.9 hPa 0.0 l/m 4.0 km/h (1 Bft) NW 0.98 h 216 W/m 13.0 C 24.3 C 6.6 km/h (2 Bft)
10.06.2008 20:00 21.5 C 65 % 1016.8 hPa 0.0 l/m 6.3 km/h (2 Bft) SO 0.20 h 43 W/m 14.6 C 21.5 C 10.1 km/h (2 Bft)
10.06.2008 21:00 18.9 C 72 % 1017.6 hPa 0.0 l/m 5.5 km/h (1 Bft) S-SO 0.20 h 27 W/m 13.8 C 18.9 C 10.9 km/h (2 Bft)
10.06.2008 22:00 17.7 C 76 % 1018.3 hPa 0.0 l/m 4.8 km/h (1 Bft) S-SO 0.00 h 0 W/m 13.3 C 17.7 C 9.2 km/h (2 Bft)
10.06.2008 23:00 16.6 C 83 % 1018.5 hPa 0.0 l/m 0.5 km/h (0 Bft) SO 0.00 h 0 W/m 13.7 C 16.6 C 1.5 km/h (1 Bft)
11.06.2008 00:00 16.6 C 84 % 1018.0 hPa 0.0 l/m 0.5 km/h (0 Bft) SO 0.00 h 0 W/m 13.8 C 16.6 C 1.0 km/h (0 Bft)
11.06.2008 01:00 16.4 C 85 % 1017.9 hPa 0.0 l/m 3.7 km/h (1 Bft) O-SO 0.00 h 0 W/m 13.8 C 16.4 C 6.0 km/h (2 Bft)
11.06.2008 02:00 16.4 C 85 % 1017.8 hPa 0.0 l/m 0.9 km/h (0 Bft) O-SO 0.00 h 0 W/m 13.8 C 16.4 C 2.5 km/h (1 Bft)
11.06.2008 03:00 16.1 C 87 % 1017.4 hPa 0.0 l/m 0.5 km/h (0 Bft) O-SO 0.00 h 0 W/m 13.9 C 16.1 C 1.6 km/h (1 Bft)
11.06.2008 04:00 15.5 C 92 % 1017.3 hPa 0.0 l/m 0.5 km/h (0 Bft) W 0.00 h 0 W/m 14.2 C 15.5 C 1.8 km/h (1 Bft)
11.06.2008 05:00 15.4 C 93 % 1017.2 hPa 0.0 l/m 0.1 km/h (0 Bft) W 0.00 h 0 W/m 14.2 C 15.4 C 0.7 km/h (0 Bft)
11.06.2008 06:00 15.4 C 95 % 1017.4 hPa 0.2 l/m 1.2 km/h (1 Bft) S 0.00 h 10 W/m 14.6 C 15.4 C 3.1 km/h (1 Bft)
11.06.2008 07:00 15.3 C 98 % 1017.5 hPa 0.2 l/m 0.7 km/h (0 Bft) S-SO 0.00 h 33 W/m 14.9 C 15.3 C 2.1 km/h (1 Bft)
11.06.2008 08:00 15.7 C 99 % 1017.4 hPa 1.0 l/m 0.2 km/h (0 Bft) S-SW 0.00 h 100 W/m 15.5 C 15.7 C 1.5 km/h (1 Bft)
11.06.2008 09:00 16.4 C 99 % 1017.6 hPa 0.0 l/m 1.0 km/h (0 Bft) S 0.00 h 196 W/m 16.2 C 16.4 C 3.1 km/h (1 Bft)
11.06.2008 10:00 17.6 C 93 % 1017.9 hPa 0.0 l/m 1.1 km/h (1 Bft) S-SW 0.13 h 328 W/m 16.4 C 17.6 C 2.9 km/h (1 Bft)
11.06.2008 11:00 18.4 C 87 % 1017.9 hPa 0.0 l/m 3.4 km/h (1 Bft) W 0.08 h 345 W/m 16.1 C 18.4 C 6.2 km/h (2 Bft)
11.06.2008 12:00 18.4 C 84 % 1017.8 hPa 0.0 l/m 5.2 km/h (1 Bft) W-NW 0.00 h 340 W/m 15.6 C 18.4 C 8.7 km/h (2 Bft)
11.06.2008 13:00 19.1 C 79 % 1017.4 hPa 0.0 l/m 6.0 km/h (2 Bft) W 0.00 h 374 W/m 15.3 C 19.1 C 10.2 km/h (2 Bft)
11.06.2008 14:00 20.0 C 77 % 1016.6 hPa 0.0 l/m 3.0 km/h (1 Bft) W 0.03 h 374 W/m 15.7 C 20.0 C 5.2 km/h (1 Bft)
11.06.2008 15:00 20.3 C 74 % 1016.0 hPa 0.0 l/m 6.0 km/h (2 Bft) W 0.28 h 374 W/m 15.4 C 20.3 C 9.6 km/h (2 Bft)
11.06.2008 16:00 20.7 C 70 % 1015.3 hPa 0.0 l/m 4.6 km/h (1 Bft) W 0.27 h 303 W/m 15.0 C 20.7 C 8.0 km/h (2 Bft)
11.06.2008 17:00 18.6 C 80 % 1014.8 hPa 0.0 l/m 1.2 km/h (1 Bft) S-SO 0.00 h 110 W/m 15.1 C 18.6 C 2.8 km/h (1 Bft)
11.06.2008 18:00 19.1 C 78 % 1014.6 hPa 0.0 l/m 1.1 km/h (1 Bft) S-SO 0.03 h 82 W/m 15.1 C 19.1 C 2.0 km/h (1 Bft)
11.06.2008 19:00 19.0 C 87 % 1014.3 hPa 0.2 l/m 1.0 km/h (0 Bft) N-NW 0.68 h 195 W/m 16.7 C 19.0 C 3.1 km/h (1 Bft)
11.06.2008 20:00 18.4 C 89 % 1014.2 hPa 0.0 l/m 1.0 km/h (0 Bft) S-SO 0.00 h 23 W/m 16.5 C 18.4 C 2.9 km/h (1 Bft)
11.06.2008 21:00 17.1 C 92 % 1014.6 hPa 8.8 l/m 1.9 km/h (1 Bft) O 0.00 h 11 W/m 15.7 C 17.1 C 3.9 km/h (1 Bft)
11.06.2008 22:00 16.1 C 94 % 1015.2 hPa 0.0 l/m 4.0 km/h (1 Bft) O-SO 0.00 h 0 W/m 15.2 C 16.1 C 5.9 km/h (2 Bft)
11.06.2008 23:00 15.0 C 94 % 1015.6 hPa 0.0 l/m 1.4 km/h (1 Bft) SO 0.00 h 0 W/m 14.1 C 15.0 C 3.4 km/h (1 Bft)
12.06.2008 00:00 15.1 C 85 % 1015.9 hPa 0.0 l/m 2.3 km/h (1 Bft) O-NO 0.00 h 0 W/m 12.6 C 15.1 C 5.7 km/h (1 Bft)
12.06.2008 01:00 14.3 C 87 % 1015.9 hPa 0.0 l/m 0.5 km/h (0 Bft) N-NO 0.00 h 0 W/m 12.1 C 14.3 C 1.8 km/h (1 Bft)
12.06.2008 02:00 14.0 C 86 % 1015.8 hPa 0.0 l/m 1.2 km/h (1 Bft) NO 0.00 h 0 W/m 11.7 C 14.0 C 2.4 km/h (1 Bft)
12.06.2008 03:00 13.5 C 90 % 1015.2 hPa 0.0 l/m 0.8 km/h (0 Bft) O 0.00 h 0 W/m 12.0 C 13.5 C 2.1 km/h (1 Bft)
12.06.2008 04:00 13.2 C 93 % 1014.9 hPa 0.0 l/m 2.5 km/h (1 Bft) O-SO 0.00 h 0 W/m 12.1 C 13.2 C 3.9 km/h (1 Bft)
12.06.2008 05:00 12.8 C 95 % 1014.7 hPa 0.0 l/m 0.3 km/h (0 Bft) O-SO 0.00 h 12 W/m 12.0 C 12.8 C 1.0 km/h (0 Bft)
12.06.2008 06:00 12.6 C 97 % 1014.8 hPa 0.0 l/m 2.4 km/h (1 Bft) O-SO 0.00 h 54 W/m 12.1 C 12.6 C 3.6 km/h (1 Bft)
12.06.2008 07:00 13.6 C 92 % 1014.7 hPa 0.0 l/m 0.6 km/h (0 Bft) O-SO 0.10 h 131 W/m 12.3 C 13.6 C 1.9 km/h (1 Bft)
12.06.2008 08:00 15.1 C 87 % 1014.5 hPa 0.0 l/m 1.8 km/h (1 Bft) N 0.50 h 268 W/m 12.9 C 15.1 C 3.9 km/h (1 Bft)
12.06.2008 09:00 16.1 C 81 % 1014.2 hPa 0.0 l/m 0.9 km/h (0 Bft) N-NW 0.37 h 400 W/m 12.9 C 16.1 C 2.5 km/h (1 Bft)
12.06.2008 10:00 16.7 C 75 % 1013.8 hPa 0.0 l/m 2.0 km/h (1 Bft) W-NW 0.62 h 427 W/m 12.2 C 16.7 C 3.7 km/h (1 Bft)
12.06.2008 11:00 17.8 C 73 % 1013.4 hPa 0.0 l/m 1.6 km/h (1 Bft) W 0.42 h 472 W/m 12.9 C 17.8 C 3.6 km/h (1 Bft)
12.06.2008 12:00 19.1 C 66 % 1012.8 hPa 0.0 l/m 6.6 km/h (2 Bft) W 0.87 h 688 W/m 12.6 C 19.1 C 11.4 km/h (2 Bft)
12.06.2008 13:00 19.6 C 63 % 1012.3 hPa 0.0 l/m 9.7 km/h (2 Bft) W 0.92 h 719 W/m 12.3 C 19.6 C 16.5 km/h (3 Bft)
12.06.2008 14:00 20.6 C 56 % 1011.4 hPa 0.0 l/m 10.5 km/h (2 Bft) W 0.75 h 759 W/m 11.4 C 20.6 C 16.6 km/h (3 Bft)
12.06.2008 15:00 21.1 C 52 % 1010.6 hPa 0.0 l/m 12.5 km/h (3 Bft) W 0.92 h 753 W/m 10.8 C 21.1 C 20.3 km/h (4 Bft)
12.06.2008 16:00 21.4 C 53 % 1010.0 hPa 0.0 l/m 11.9 km/h (2 Bft) W 1.00 h 715 W/m 11.3 C 21.4 C 19.2 km/h (3 Bft)
12.06.2008 17:00 21.5 C 52 % 1009.4 hPa 0.0 l/m 12.1 km/h (2 Bft) W 0.90 h 512 W/m 11.3 C 21.5 C 20.0 km/h (4 Bft)
12.06.2008 18:00 20.1 C 52 % 1009.0 hPa 0.0 l/m 13.3 km/h (3 Bft) W 0.70 h 303 W/m 9.9 C 20.1 C 21.0 km/h (4 Bft)
12.06.2008 19:00 19.7 C 51 % 1008.8 hPa 0.0 l/m 13.4 km/h (3 Bft) W 0.95 h 227 W/m 9.4 C 19.7 C 20.9 km/h (4 Bft)
12.06.2008 20:00 18.1 C 57 % 1008.8 hPa 0.0 l/m 10.1 km/h (2 Bft) W 0.23 h 45 W/m 9.5 C 18.1 C 15.9 km/h (3 Bft)
12.06.2008 21:00 16.5 C 63 % 1009.4 hPa 0.0 l/m 19.1 km/h (3 Bft) W 0.00 h 7 W/m 9.5 C 16.5 C 28.7 km/h (4 Bft)
12.06.2008 22:00 13.7 C 81 % 1011.0 hPa 0.2 l/m 20.2 km/h (4 Bft) W 0.00 h 0 W/m 10.4 C 13.7 C 29.5 km/h (5 Bft)
12.06.2008 23:00 12.4 C 93 % 1011.6 hPa 0.6 l/m 16.0 km/h (3 Bft) W 0.00 h 0 W/m 11.3 C 12.4 C 24.7 km/h (4 Bft)
13.06.2008 00:00 12.3 C 92 % 1012.0 hPa 0.0 l/m 11.2 km/h (2 Bft) W 0.00 h 0 W/m 11.1 C 12.3 C 18.3 km/h (3 Bft)
13.06.2008 01:00 12.0 C 90 % 1012.4 hPa 0.0 l/m 11.0 km/h (2 Bft) W 0.00 h 0 W/m 10.4 C 12.0 C 17.2 km/h (3 Bft)
13.06.2008 02:00 11.8 C 85 % 1013.1 hPa 0.0 l/m 11.7 km/h (2 Bft) W 0.00 h 0 W/m 9.4 C 11.8 C 18.6 km/h (3 Bft)
13.06.2008 03:00 11.3 C 86 % 1013.3 hPa 0.0 l/m 8.9 km/h (2 Bft) W 0.00 h 0 W/m 9.1 C 11.3 C 14.9 km/h (3 Bft)
13.06.2008 04:00 11.3 C 85 % 1013.7 hPa 0.0 l/m 9.2 km/h (2 Bft) W 0.00 h 0 W/m 8.8 C 11.3 C 14.8 km/h (3 Bft)
13.06.2008 05:00 10.4 C 90 % 1014.1 hPa 0.6 l/m 1.7 km/h (1 Bft) W 0.00 h 5 W/m 8.8 C 10.4 C 3.1 km/h (1 Bft)
13.06.2008 06:00 10.3 C 92 % 1014.6 hPa 0.0 l/m 0.0 km/h (0 Bft) N 0.00 h 26 W/m 9.1 C 10.3 C 0.3 km/h (0 Bft)
13.06.2008 07:00 10.4 C 96 % 1015.0 hPa 0.0 l/m 0.7 km/h (0 Bft) W-NW 0.00 h 75 W/m 9.8 C 10.4 C 2.3 km/h (1 Bft)
13.06.2008 08:00 11.4 C 89 % 1015.2 hPa 0.0 l/m 0.9 km/h (0 Bft) W-NW 0.53 h 315 W/m 9.7 C 11.4 C 2.5 km/h (1 Bft)
13.06.2008 09:00 13.2 C 74 % 1015.4 hPa 0.0 l/m 2.0 km/h (1 Bft) N-NW 0.93 h 499 W/m 8.7 C 13.2 C 4.4 km/h (1 Bft)
13.06.2008 10:00 12.5 C 76 % 1015.7 hPa 0.0 l/m 3.4 km/h (1 Bft) N-NW 0.00 h 216 W/m 8.4 C 12.5 C 6.3 km/h (2 Bft)
13.06.2008 11:00 13.5 C 72 % 1015.9 hPa 0.0 l/m 4.5 km/h (1 Bft) W-NW 0.23 h 424 W/m 8.6 C 13.5 C 7.2 km/h (2 Bft)
13.06.2008 12:00 14.9 C 65 % 1015.5 hPa 0.0 l/m 6.3 km/h (2 Bft) W-NW 0.48 h 531 W/m 8.4 C 14.9 C 10.7 km/h (2 Bft)
13.06.2008 13:00 15.7 C 61 % 1015.1 hPa 0.0 l/m 6.2 km/h (2 Bft) N-NW 0.67 h 596 W/m 8.2 C 15.7 C 9.8 km/h (2 Bft)
13.06.2008 14:00 16.0 C 60 % 1014.7 hPa 0.0 l/m 5.1 km/h (1 Bft) N-NW 0.33 h 449 W/m 8.2 C 16.0 C 8.5 km/h (2 Bft)
13.06.2008 15:00 18.1 C 55 % 1014.3 hPa 0.0 l/m 7.1 km/h (2 Bft) W 0.87 h 824 W/m 8.9 C 18.1 C 11.8 km/h (2 Bft)
13.06.2008 16:00 17.8 C 53 % 1014.2 hPa 0.0 l/m 8.0 km/h (2 Bft) W-NW 0.73 h 599 W/m 8.0 C 17.8 C 13.7 km/h (3 Bft)
13.06.2008 17:00 17.0 C 56 % 1014.3 hPa 0.0 l/m 4.2 km/h (1 Bft) NO 0.77 h 511 W/m 8.2 C 17.0 C 7.9 km/h (2 Bft)
13.06.2008 18:00 16.4 C 59 % 1014.3 hPa 0.0 l/m 3.7 km/h (1 Bft) N-NO 0.63 h 305 W/m 8.3 C 16.4 C 8.0 km/h (2 Bft)
13.06.2008 19:00 15.0 C 64 % 1014.6 hPa 0.0 l/m 2.3 km/h (1 Bft) O-NO 0.22 h 114 W/m 8.2 C 15.0 C 5.9 km/h (2 Bft)
13.06.2008 20:00 13.6 C 68 % 1014.9 hPa 0.0 l/m 0.9 km/h (0 Bft) NO 0.00 h 23 W/m 7.8 C 13.6 C 3.1 km/h (1 Bft)
13.06.2008 21:00 12.8 C 75 % 1015.3 hPa 0.0 l/m 0.3 km/h (0 Bft) NO 0.00 h 9 W/m 8.5 C 12.8 C 0.7 km/h (0 Bft)
13.06.2008 22:00 12.8 C 72 % 1015.7 hPa 0.0 l/m 0.8 km/h (0 Bft) NO 0.00 h 0 W/m 7.8 C 12.8 C 2.2 km/h (1 Bft)
13.06.2008 23:00 12.0 C 71 % 1015.5 hPa 0.0 l/m 1.0 km/h (0 Bft) N-NO 0.00 h 0 W/m 7.0 C 12.0 C 3.0 km/h (1 Bft)
14.06.2008 00:00 11.0 C 76 % 1015.9 hPa 0.0 l/m 0.4 km/h (0 Bft) O-SO 0.00 h 0 W/m 6.9 C 11.0 C 1.2 km/h (1 Bft)
14.06.2008 01:00 10.7 C 79 % 1015.8 hPa 0.0 l/m 0.8 km/h (0 Bft) W-NW 0.00 h 0 W/m 7.2 C 10.7 C 2.2 km/h (1 Bft)
14.06.2008 02:00 9.9 C 81 % 1015.4 hPa 0.0 l/m 0.5 km/h (0 Bft) W-NW 0.00 h 0 W/m 6.9 C 9.9 C 1.6 km/h (1 Bft)
14.06.2008 03:00 9.6 C 81 % 1015.1 hPa 0.0 l/m 0.3 km/h (0 Bft) W-NW 0.00 h 0 W/m 6.5 C 9.6 C 1.0 km/h (0 Bft)
14.06.2008 04:00 8.9 C 86 % 1015.0 hPa 0.0 l/m 0.4 km/h (0 Bft) W-NW 0.00 h 0 W/m 6.6 C 8.9 C 1.5 km/h (1 Bft)
14.06.2008 05:00 9.0 C 87 % 1015.2 hPa 0.0 l/m 0.5 km/h (0 Bft) W-NW 0.00 h 7 W/m 7.0 C 9.0 C 1.5 km/h (1 Bft)
14.06.2008 06:00 9.4 C 85 % 1015.5 hPa 0.0 l/m 0.5 km/h (0 Bft) O 0.00 h 25 W/m 7.0 C 9.4 C 1.0 km/h (0 Bft)
14.06.2008 07:00 9.9 C 86 % 1015.6 hPa 0.0 l/m 0.5 km/h (0 Bft) NW 0.00 h 53 W/m 7.6 C 9.9 C 1.4 km/h (1 Bft)
14.06.2008 08:00 10.7 C 83 % 1016.0 hPa 0.0 l/m 2.4 km/h (1 Bft) NW 0.00 h 150 W/m 8.0 C 10.7 C 4.6 km/h (1 Bft)
14.06.2008 09:00 12.0 C 77 % 1016.1 hPa 0.0 l/m 2.7 km/h (1 Bft) N-NW 0.13 h 280 W/m 8.1 C 12.0 C 4.8 km/h (1 Bft)
14.06.2008 10:00 12.6 C 78 % 1016.2 hPa 0.0 l/m 4.0 km/h (1 Bft) N-NW 0.00 h 246 W/m 8.9 C 12.6 C 6.9 km/h (2 Bft)
14.06.2008 11:00 13.5 C 73 % 1016.0 hPa 0.0 l/m 4.3 km/h (1 Bft) N-NW 0.00 h 337 W/m 8.7 C 13.5 C 7.0 km/h (2 Bft)
14.06.2008 12:00 14.8 C 68 % 1015.7 hPa 0.0 l/m 4.9 km/h (1 Bft) NW 0.63 h 530 W/m 8.9 C 14.8 C 7.5 km/h (2 Bft)
14.06.2008 13:00 17.1 C 57 % 1015.3 hPa 0.0 l/m 5.5 km/h (1 Bft) W-NW 0.98 h 729 W/m 8.4 C 17.1 C 8.8 km/h (2 Bft)
14.06.2008 14:00 18.2 C 53 % 1015.0 hPa 0.0 l/m 6.4 km/h (2 Bft) N-NW 0.82 h 700 W/m 8.3 C 18.2 C 10.5 km/h (2 Bft)
14.06.2008 15:00 17.0 C 51 % 1015.1 hPa 0.0 l/m 6.6 km/h (2 Bft) NW 0.27 h 405 W/m 6.9 C 17.0 C 10.6 km/h (2 Bft)
14.06.2008 16:00 18.9 C 45 % 1014.7 hPa 0.0 l/m 6.0 km/h (2 Bft) N-NW 0.78 h 640 W/m 6.7 C 18.9 C 10.1 km/h (2 Bft)
14.06.2008 17:00 17.1 C 51 % 1014.8 hPa 0.0 l/m 4.4 km/h (1 Bft) N-NW 0.08 h 225 W/m 6.9 C 17.1 C 7.2 km/h (2 Bft)
14.06.2008 18:00 17.1 C 52 % 1014.7 hPa 0.0 l/m 1.5 km/h (1 Bft) O 0.48 h 276 W/m 7.0 C 17.1 C 3.4 km/h (1 Bft)
14.06.2008 19:00 16.9 C 53 % 1014.6 hPa 0.0 l/m 2.3 km/h (1 Bft) O-SO 0.60 h 184 W/m 7.2 C 16.9 C 4.2 km/h (1 Bft)
14.06.2008 20:00 16.4 C 53 % 1014.8 hPa 0.0 l/m 0.8 km/h (0 Bft) W-SW 0.60 h 62 W/m 6.7 C 16.4 C 2.3 km/h (1 Bft)
14.06.2008 21:00 15.2 C 57 % 1014.8 hPa 0.0 l/m 1.2 km/h (1 Bft) SO 0.03 h 12 W/m 6.7 C 15.2 C 2.8 km/h (1 Bft)
14.06.2008 22:00 13.1 C 70 % 1015.1 hPa 0.0 l/m 1.8 km/h (1 Bft) SO 0.00 h 0 W/m 7.8 C 13.1 C 2.9 km/h (1 Bft)
14.06.2008 23:00 12.1 C 75 % 1015.4 hPa 0.0 l/m 0.1 km/h (0 Bft) SO 0.00 h 0 W/m 7.7 C 12.1 C 0.6 km/h (0 Bft)
15.06.2008 00:00 10.6 C 81 % 1015.3 hPa 0.0 l/m 0.8 km/h (0 Bft) SO 0.00 h 0 W/m 7.6 C 10.6 C 1.6 km/h (1 Bft)
15.06.2008 01:00 9.3 C 88 % 1015.1 hPa 0.0 l/m 0.5 km/h (0 Bft) SO 0.00 h 0 W/m 7.4 C 9.3 C 1.0 km/h (0 Bft)
15.06.2008 02:00 8.2 C 89 % 1014.9 hPa 0.0 l/m 0.0 km/h (0 Bft) N 0.00 h 0 W/m 6.5 C 8.2 C 0.1 km/h (0 Bft)
15.06.2008 03:00 7.3 C 90 % 1014.4 hPa 0.0 l/m 0.3 km/h (0 Bft) SO 0.00 h 0 W/m 5.8 C 7.3 C 0.8 km/h (0 Bft)
15.06.2008 04:00 6.8 C 92 % 1013.9 hPa 0.0 l/m 0.2 km/h (0 Bft) SO 0.00 h 0 W/m 5.6 C 6.8 C 0.8 km/h (0 Bft)
15.06.2008 05:00 6.3 C 94 % 1013.6 hPa 0.0 l/m 0.1 km/h (0 Bft) SO 0.23 h 16 W/m 5.3 C 6.3 C 0.5 km/h (0 Bft)
15.06.2008 06:00 6.8 C 94 % 1013.4 hPa 0.0 l/m 0.3 km/h (0 Bft) SO 0.10 h 70 W/m 5.9 C 6.8 C 0.9 km/h (0 Bft)
15.06.2008 07:00 8.4 C 90 % 1013.0 hPa 0.0 l/m 0.8 km/h (0 Bft) W-SW 0.40 h 161 W/m 6.8 C 8.3 C 1.8 km/h (1 Bft)
15.06.2008 08:00 10.0 C 85 % 1012.7 hPa 0.0 l/m 1.6 km/h (1 Bft) W-SW 0.47 h 241 W/m 7.6 C 10.0 C 3.3 km/h (1 Bft)
15.06.2008 09:00 11.4 C 82 % 1012.7 hPa 0.0 l/m 0.5 km/h (0 Bft) NW 0.00 h 248 W/m 8.6 C 11.4 C 1.6 km/h (1 Bft)
15.06.2008 10:00 12.5 C 80 % 1012.4 hPa 0.0 l/m 0.6 km/h (0 Bft) O-SO 0.00 h 297 W/m 9.1 C 12.5 C 2.0 km/h (1 Bft)
15.06.2008 11:00 13.8 C 76 % 1012.2 hPa 0.0 l/m 1.6 km/h (1 Bft) O-SO 0.00 h 280 W/m 9.6 C 13.8 C 3.4 km/h (1 Bft)
15.06.2008 12:00 14.6 C 72 % 1012.2 hPa 0.0 l/m 2.0 km/h (1 Bft) S-SO 0.00 h 269 W/m 9.6 C 14.6 C 4.8 km/h (1 Bft)
15.06.2008 13:00 11.9 C 82 % 1012.4 hPa 5.0 l/m 5.5 km/h (1 Bft) O-SO 0.00 h 285 W/m 9.0 C 11.9 C 7.9 km/h (2 Bft)
15.06.2008 14:00 13.5 C 76 % 1011.9 hPa 0.2 l/m 1.6 km/h (1 Bft) O 0.00 h 311 W/m 9.4 C 13.5 C 3.5 km/h (1 Bft)
15.06.2008 15:00 13.7 C 76 % 1011.5 hPa 0.0 l/m 0.1 km/h (0 Bft) O 0.00 h 204 W/m 9.5 C 13.7 C 0.5 km/h (0 Bft)
15.06.2008 16:00 13.3 C 85 % 1011.4 hPa 0.2 l/m 0.6 km/h (0 Bft) O 0.00 h 179 W/m 10.9 C 13.3 C 1.6 km/h (1 Bft)
15.06.2008 17:00 13.4 C 91 % 1011.0 hPa 0.4 l/m 0.2 km/h (0 Bft) O 0.00 h 154 W/m 12.0 C 13.4 C 1.3 km/h (1 Bft)
15.06.2008 18:00 12.1 C 95 % 1011.0 hPa 1.0 l/m 3.6 km/h (1 Bft) W-NW 0.00 h 64 W/m 11.4 C 12.1 C 6.1 km/h (2 Bft)
15.06.2008 19:00 11.7 C 98 % 1010.8 hPa 1.0 l/m 0.3 km/h (0 Bft) W-NW 0.00 h 52 W/m 11.4 C 11.7 C 1.5 km/h (1 Bft)
15.06.2008 20:00 11.7 C 96 % 1010.3 hPa 0.0 l/m 0.3 km/h (0 Bft) W-NW 0.00 h 25 W/m 11.2 C 11.7 C 1.5 km/h (1 Bft)
15.06.2008 21:00 11.6 C 97 % 1010.2 hPa 0.0 l/m 0.4 km/h (0 Bft) W-NW 0.00 h 5 W/m 11.1 C 11.6 C 1.2 km/h (1 Bft)
15.06.2008 22:00 11.6 C 98 % 1010.6 hPa 0.0 l/m 0.1 km/h (0 Bft) W-NW 0.00 h 0 W/m 11.3 C 11.6 C 0.9 km/h (0 Bft)
15.06.2008 23:00 11.5 C 99 % 1010.5 hPa 0.0 l/m 1.1 km/h (1 Bft) S-SO 0.00 h 0 W/m 11.3 C 11.5 C 2.3 km/h (1 Bft)
Min-Datum _ 15.06.08 14.06.08 12.06.08 - 09.06.08 - - - 14.06.08 15.06.08 09.06.08
_ Min-Zeit 05:30 16:20 19:15 - 00:00 - - - 16:20 05:30 01:03
Minimum _ 6.1 C 38 % 1008.8 hPa - 0.0 km/h (0 Bft) - - - 4.5 C 6.1 C 0.0 km/h (0 Bft)
Max-Datum _ 10.06.08 11.06.08 10.06.08 11.06.08 12.06.08 - 09.06.08 13.06.08 10.06.08 10.06.08 12.06.08
_ Max-Zeit 15:04 08:41 07:15 21:13 21:41 - 05:42 13:33 11:59 15:04 21:40
Maximum _ 26.9 C 100 % 1020.3 hPa 8.8 l/m 34.8 km/h
W (5 Bft)
- 0.02 h 1294 W/m 18.2 C 26.9 C 50.4 km/h
W (7 Bft)
Durchschnitt _ 15.4 C 77 % 1015.5 hPa #19.6 l/m 3.3 km/h (1 Bft) W #46:08 h 313 W/m 11.1 C 15.4 C 5.9 km/h (2 Bft)
© Kaiko 2008